K9MN

Rochester

Rochester, Minnesota, USA
METAR K9MN 251435Z AUTO 32005KT 10SM OVC008 13/12 A2990 RMK AO1 T01300116
Observed Flight Rules
Sep-25 @ 14:35 UTC (30 minutes ago) Instrument Flight Rules
Wind Visibility Clouds
320° at 5 knots 10 miles
  • Overcast at 800' AGL
Temperatures Readings
Current 13°C / 55°F
Dewpoint 12°C / 54°F
Humidity 94%
Altimeter 29.9" Hg
Pressure 1013 hPa
Elevation 355
METAR K9MN 251435Z AUTO 32005KT 10SM OVC008 13/12 A2990 RMK AO1 T01300116
Observed Flight Rules
Sep-25 @ 14:35 UTC
(30 minutes ago)
IFR
Wind Visibility
320° at 5 knots 10 miles
Clouds
  • Overcast at 800' AGL
Temperature Dewpoint
13°C / 55°F 12°C / 54°F
Humidity Altimeter Pressure
94% 29.9" Hg 1013 hPa